Time;durP1;ratioP1;P1;durP2;ratioP2;P2;SDS_P1;SDS_P2;PMS_P1;PMS_P2;Temp;Humidity;BMP_temperature;BMP_pressure;BME280_temperature;BME280_humidity;BME280_pressure;Samples;Min_cycle;Max_cycle;Signal;HPM_P1;HPM_P2
2022/08/28 00:00:41;;;;;;;8.43;3.43;;;;;;;18.51;100.00;99096.69;4987967;28;20207;-80
2022/08/28 00:03:11;;;;;;;5.47;3.40;;;;;;;18.48;100.00;99094.31;4992741;28;20199;-80
2022/08/28 00:05:42;;;;;;;6.67;3.77;;;;;;;18.39;100.00;99095.22;5008191;28;20209;-80
2022/08/28 00:08:12;;;;;;;7.40;3.27;;;;;;;18.41;100.00;99099.44;5073414;28;20287;-80
2022/08/28 00:10:41;;;;;;;5.73;3.40;;;;;;;18.31;100.00;99101.31;5085214;27;20236;-80
2022/08/28 00:13:17;;;;;;;7.73;3.97;;;;;;;18.38;100.00;99105.09;5132926;27;20198;-80
2022/08/28 00:15:49;;;;;;;5.00;3.23;;;;;;;18.30;100.00;99102.31;5132288;27;20263;-81
2022/08/28 00:18:18;;;;;;;8.10;3.70;;;;;;;18.21;100.00;99104.03;5136465;27;20283;-81
2022/08/28 00:20:48;;;;;;;7.30;3.67;;;;;;;18.21;100.00;99108.56;5133308;27;20285;-80
2022/08/28 00:23:18;;;;;;;6.20;3.43;;;;;;;18.23;100.00;99112.78;5130022;27;20191;-80
2022/08/28 00:25:46;;;;;;;7.20;3.90;;;;;;;18.18;100.00;99107.03;5126709;27;20226;-80
2022/08/28 00:28:16;;;;;;;3.93;3.33;;;;;;;18.15;100.00;99104.66;5127883;27;20202;-80
2022/08/28 00:30:53;;;;;;;5.37;3.50;;;;;;;18.08;100.00;99114.25;5133634;27;20555;-80
2022/08/28 00:33:26;;;;;;;10.07;3.93;;;;;;;18.08;100.00;99108.06;5136577;27;20194;-80
2022/08/28 00:35:55;;;;;;;8.73;3.73;;;;;;;18.04;100.00;99112.84;5133307;27;20269;-81
2022/08/28 00:38:26;;;;;;;6.30;3.40;;;;;;;17.88;100.00;99118.84;5135086;27;20206;-81
2022/08/28 00:40:57;;;;;;;8.73;3.87;;;;;;;17.77;100.00;99112.81;5134694;27;20213;-80
2022/08/28 00:43:40;;;;;;;4.37;3.07;;;;;;;17.87;100.00;99121.69;5072687;28;20202;-80
2022/08/28 00:46:11;;;;;;;6.63;4.00;;;;;;;17.88;100.00;99126.03;5069693;28;20288;-80
2022/08/28 00:48:40;;;;;;;6.37;3.90;;;;;;;17.92;100.00;99122.91;5070388;28;20215;-80
2022/08/28 00:53:58;;;;;;;7.20;3.70;;;;;;;17.87;100.00;99122.53;5069870;28;20196;-80
2022/08/28 00:56:32;;;;;;;5.40;3.67;;;;;;;17.79;100.00;99125.06;5068278;28;20196;-80
2022/08/28 00:59:11;;;;;;;7.20;4.13;;;;;;;17.85;100.00;99119.13;5067531;28;20212;-81
2022/08/28 01:01:39;;;;;;;5.73;4.17;;;;;;;17.85;100.00;99118.28;5101077;27;20272;-80
2022/08/28 01:04:08;;;;;;;5.67;3.90;;;;;;;17.81;100.00;99114.22;5130235;27;20198;-80
2022/08/28 01:06:38;;;;;;;7.60;3.83;;;;;;;17.70;100.00;99120.59;5128938;27;20214;-81
2022/08/28 01:09:07;;;;;;;6.83;4.07;;;;;;;17.60;100.00;99120.56;5126926;27;20278;-81
2022/08/28 01:11:35;;;;;;;6.53;3.90;;;;;;;17.55;100.00;99114.78;5128437;27;20225;-81
2022/08/28 01:14:07;;;;;;;4.50;3.47;;;;;;;17.50;100.00;99117.06;5127136;27;20668;-80
2022/08/28 01:16:36;;;;;;;5.57;3.97;;;;;;;17.52;100.00;99122.28;5130724;27;20202;-81
2022/08/28 01:19:18;;;;;;;6.63;3.73;;;;;;;17.53;100.00;99114.09;5133259;27;20201;-80
2022/08/28 01:21:54;;;;;;;7.20;3.83;;;;;;;17.39;100.00;99119.91;5129544;27;20212;-80
2022/08/28 01:24:27;;;;;;;5.60;3.43;;;;;;;17.52;100.00;99115.06;5125674;27;20194;-80
2022/08/28 01:26:55;;;;;;;5.87;4.17;;;;;;;17.57;100.00;99120.03;5123757;27;20230;-80
2022/08/28 01:29:24;;;;;;;6.37;4.30;;;;;;;17.32;100.00;99127.66;5123915;27;20194;-80
2022/08/28 01:31:53;;;;;;;6.83;4.03;;;;;;;17.48;100.00;99116.38;5121138;27;20201;-80
2022/08/28 01:34:21;;;;;;;5.33;3.80;;;;;;;17.51;100.00;99110.72;5124870;27;20201;-81
2022/08/28 01:36:50;;;;;;;7.07;3.70;;;;;;;17.57;100.00;99114.66;5130106;27;20194;-80
2022/08/28 01:39:23;;;;;;;6.87;3.60;;;;;;;17.57;100.00;99115.50;5133919;27;20258;-80
2022/08/28 01:41:55;;;;;;;7.43;3.53;;;;;;;17.51;100.00;99112.56;5130189;27;20229;-81
2022/08/28 01:44:26;;;;;;;6.00;3.40;;;;;;;17.48;100.00;99112.84;5128940;27;20213;-81
2022/08/28 01:46:57;;;;;;;6.57;3.53;;;;;;;17.61;100.00;99122.25;5125324;27;20222;-80
2022/08/28 01:49:28;;;;;;;5.53;3.43;;;;;;;17.67;100.00;99110.13;5128081;27;20269;-80
2022/08/28 01:51:59;;;;;;;5.47;3.37;;;;;;;17.77;100.00;99118.19;5123292;27;20273;-80
2022/08/28 01:54:31;;;;;;;8.20;3.50;;;;;;;17.88;100.00;99115.31;5131722;27;20210;-80
2022/08/28 01:57:03;;;;;;;6.73;3.23;;;;;;;17.77;100.00;99119.03;5131583;27;20663;-80
2022/08/28 01:59:32;;;;;;;5.33;3.23;;;;;;;17.89;100.00;99117.84;5126595;27;20273;-80
2022/08/28 02:02:04;;;;;;;8.10;3.63;;;;;;;17.90;100.00;99114.19;5111605;27;20194;-80
2022/08/28 02:04:32;;;;;;;7.60;3.67;;;;;;;17.85;100.00;99111.06;5134131;27;20190;-80
2022/08/28 02:07:01;;;;;;;9.63;3.87;;;;;;;17.88;100.00;99118.84;5130111;27;20214;-80
2022/08/28 02:09:30;;;;;;;7.77;3.93;;;;;;;17.86;100.00;99118.16;5133225;27;20649;-80
2022/08/28 02:11:59;;;;;;;9.07;3.77;;;;;;;17.80;100.00;99124.09;5136112;27;20198;-80
2022/08/28 02:14:29;;;;;;;8.07;4.03;;;;;;;17.82;100.00;99119.41;5131879;27;20202;-81
2022/08/28 02:16:57;;;;;;;7.53;3.77;;;;;;;17.85;100.00;99121.78;5112463;27;20212;-80
2022/08/28 02:19:26;;;;;;;8.27;3.70;;;;;;;17.83;100.00;99114.91;5130368;27;20209;-81
2022/08/28 02:21:54;;;;;;;11.77;3.87;;;;;;;17.87;100.00;99116.31;5134429;27;20241;-81
2022/08/28 02:24:22;;;;;;;6.83;3.40;;;;;;;17.91;100.00;99123.06;5046140;28;20658;-81
2022/08/28 02:26:51;;;;;;;7.40;3.30;;;;;;;17.89;100.00;99117.00;5044724;28;20223;-81
2022/08/28 02:29:19;;;;;;;9.30;3.77;;;;;;;17.89;100.00;99119.69;5050901;28;20196;-80
2022/08/28 02:31:49;;;;;;;8.17;3.50;;;;;;;17.87;100.00;99119.84;5045566;28;20200;-81
2022/08/28 02:34:18;;;;;;;13.10;4.17;;;;;;;17.96;100.00;99118.97;5049121;28;20204;-81
2022/08/28 02:36:48;;;;;;;8.17;3.50;;;;;;;17.84;100.00;99113.91;5043910;28;20224;-80
2022/08/28 02:39:17;;;;;;;11.63;3.67;;;;;;;17.91;100.00;99118.53;5045398;28;20220;-81
2022/08/28 02:41:46;;;;;;;9.83;3.77;;;;;;;17.98;100.00;99116.13;5066381;27;20202;-81
2022/08/28 02:44:14;;;;;;;8.00;3.53;;;;;;;17.98;100.00;99108.09;5129304;27;20198;-80
2022/08/28 02:46:45;;;;;;;7.43;3.33;;;;;;;17.95;100.00;99101.19;5134271;27;20283;-81
2022/08/28 02:49:15;;;;;;;8.20;3.70;;;;;;;17.90;100.00;99099.94;5130855;27;20253;-80
2022/08/28 02:51:45;;;;;;;7.23;3.43;;;;;;;17.96;100.00;99110.09;5130546;27;20205;-81
2022/08/28 02:54:13;;;;;;;7.43;3.70;;;;;;;17.80;100.00;99099.97;5131208;27;20198;-81
2022/08/28 02:56:45;;;;;;;7.73;3.90;;;;;;;17.84;100.00;99116.59;5135456;27;20254;-80
2022/08/28 02:59:14;;;;;;;9.70;3.50;;;;;;;17.86;100.00;99110.13;5127479;27;20194;-81
2022/08/28 03:01:44;;;;;;;9.57;3.43;;;;;;;17.75;100.00;99118.31;5131308;27;20309;-81
2022/08/28 03:04:12;;;;;;;8.10;4.37;;;;;;;17.79;100.00;99114.34;5131398;27;20194;-81
2022/08/28 03:06:43;;;;;;;7.80;3.50;;;;;;;17.71;100.00;99116.91;5134153;27;20241;-81
2022/08/28 03:09:13;;;;;;;6.17;3.43;;;;;;;17.67;100.00;99113.66;5129615;27;20202;-81
2022/08/28 03:11:44;;;;;;;8.20;3.63;;;;;;;17.62;100.00;99121.25;5132053;27;20190;-81
2022/08/28 03:14:12;;;;;;;5.57;3.23;;;;;;;17.67;100.00;99120.84;5128165;27;20205;-81
2022/08/28 03:16:40;;;;;;;8.37;3.60;;;;;;;17.73;100.00;99129.16;5134964;27;20195;-81
2022/08/28 03:19:09;;;;;;;10.67;3.93;;;;;;;17.61;100.00;99126.78;5132154;27;20186;-81
2022/08/28 03:21:38;;;;;;;6.37;3.40;;;;;;;17.61;100.00;99127.63;5131832;27;20284;-81
2022/08/28 03:24:09;;;;;;;10.30;3.53;;;;;;;17.58;100.00;99132.41;5134492;27;20398;-81
2022/08/28 03:26:43;;;;;;;8.90;3.27;;;;;;;17.61;100.00;99137.47;5133569;27;20217;-80
2022/08/28 03:29:11;;;;;;;8.37;3.60;;;;;;;17.56;100.00;99135.22;5126314;27;20198;-80
2022/08/28 03:31:40;;;;;;;7.40;3.57;;;;;;;17.60;100.00;99133.97;5134503;27;20186;-80
2022/08/28 03:34:09;;;;;;;7.47;3.10;;;;;;;17.50;100.00;99132.28;5132003;27;20190;-81
2022/08/28 03:36:40;;;;;;;6.07;3.10;;;;;;;17.48;100.00;99131.59;5131363;27;20194;-81
2022/08/28 03:39:09;;;;;;;6.10;3.00;;;;;;;17.51;100.00;99132.13;5127972;27;20278;-81
2022/08/28 03:41:39;;;;;;;9.90;3.30;;;;;;;17.34;100.00;99132.84;5128150;27;20201;-81
2022/08/28 03:44:08;;;;;;;9.20;3.63;;;;;;;17.43;100.00;99146.22;5137265;27;20190;-80
2022/08/28 03:46:36;;;;;;;7.73;3.10;;;;;;;17.52;100.00;99147.22;5136915;27;20267;-81
2022/08/28 03:49:05;;;;;;;6.13;3.10;;;;;;;17.49;100.00;99150.19;5128090;27;20221;-81
2022/08/28 03:51:34;;;;;;;7.10;3.00;;;;;;;17.50;100.00;99141.16;5131230;27;20381;-81
2022/08/28 03:54:04;;;;;;;7.20;3.00;;;;;;;17.54;100.00;99157.78;5131710;27;20187;-81
2022/08/28 03:56:37;;;;;;;8.30;3.20;;;;;;;17.44;100.00;99153.28;5031562;28;20208;-81
2022/08/28 03:59:05;;;;;;;5.50;3.00;;;;;;;17.30;100.00;99148.38;5031185;28;20248;-81
2022/08/28 04:01:36;;;;;;;8.53;3.27;;;;;;;17.42;100.00;99157.09;5030817;28;20214;-80
2022/08/28 04:04:06;;;;;;;10.40;3.53;;;;;;;17.29;100.00;99152.03;4989221;28;20239;-80
2022/08/28 04:06:35;;;;;;;10.13;2.90;;;;;;;17.34;100.00;99155.13;4992057;28;20219;-80
2022/08/28 04:09:05;;;;;;;8.43;3.20;;;;;;;17.35;100.00;99150.59;4986772;28;20262;-81
2022/08/28 04:11:41;;;;;;;7.30;2.80;;;;;;;17.35;100.00;99148.78;4993374;28;20211;-81
2022/08/28 04:14:10;;;;;;;9.57;3.10;;;;;;;17.44;100.00;99152.44;5014929;28;20709;-81
2022/08/28 04:16:40;;;;;;;6.30;2.70;;;;;;;17.37;100.00;99144.16;5088582;28;20199;-80
2022/08/28 04:19:09;;;;;;;6.37;3.00;;;;;;;17.51;100.00;99148.22;5088705;28;20196;-81
2022/08/28 04:21:38;;;;;;;6.10;2.87;;;;;;;17.50;100.00;99146.53;5095543;27;20273;-80
2022/08/28 04:24:07;;;;;;;6.50;2.97;;;;;;;17.54;100.00;99152.44;5087184;28;20312;-81
2022/08/28 04:26:41;;;;;;;6.83;3.00;;;;;;;17.45;100.00;99141.56;5092118;28;20222;-81
2022/08/28 04:29:10;;;;;;;5.60;2.83;;;;;;;17.31;100.00;99149.22;5090091;28;20245;-81
2022/08/28 04:31:38;;;;;;;9.83;3.33;;;;;;;17.24;100.00;99145.41;5084335;28;20227;-81
2022/08/28 04:34:09;;;;;;;10.67;3.67;;;;;;;17.32;100.00;99150.91;5089472;28;20274;-81
2022/08/28 04:36:39;;;;;;;10.13;3.20;;;;;;;17.31;100.00;99146.53;5089566;28;20642;-81
2022/08/28 04:39:09;;;;;;;6.83;3.10;;;;;;;17.30;100.00;99150.19;5087828;28;20187;-81
2022/08/28 04:41:45;;;;;;;9.63;3.20;;;;;;;17.16;100.00;99154.13;5099182;27;20251;-81
2022/08/28 04:44:13;;;;;;;6.20;2.83;;;;;;;17.13;100.00;99163.28;5133161;27;20276;-80
2022/08/28 04:46:42;;;;;;;7.97;3.40;;;;;;;17.08;100.00;99162.88;5130188;27;20234;-81
2022/08/28 04:49:15;;;;;;;7.27;3.10;;;;;;;17.12;100.00;99171.47;5129856;27;20700;-80
2022/08/28 04:51:44;;;;;;;13.23;3.43;;;;;;;17.25;100.00;99172.03;5061701;28;20204;-80
2022/08/28 04:54:14;;;;;;;5.30;2.73;;;;;;;17.30;100.00;99171.63;5061614;28;20188;-81
2022/08/28 04:56:45;;;;;;;6.80;2.80;;;;;;;17.36;100.00;99173.72;5065740;28;20706;-81
2022/08/28 04:59:15;;;;;;;7.00;2.90;;;;;;;17.28;100.00;99173.59;5065595;28;20204;-81
2022/08/28 05:01:44;;;;;;;7.17;2.80;;;;;;;17.26;100.00;99175.53;5009570;28;20725;-81
2022/08/28 05:04:13;;;;;;;10.93;3.17;;;;;;;17.36;100.00;99174.56;4978030;28;20667;-81
2022/08/28 05:06:44;;;;;;;5.67;3.00;;;;;;;17.23;100.00;99182.03;5012535;28;20279;-80
2022/08/28 05:09:15;;;;;;;6.30;2.73;;;;;;;17.38;100.00;99177.97;5009467;28;20190;-81
2022/08/28 05:11:47;;;;;;;4.97;3.00;;;;;;;17.39;100.00;99186.84;5008104;28;20685;-81
2022/08/28 05:14:20;;;;;;;6.20;2.83;;;;;;;17.30;100.00;99185.84;4931682;29;20190;-81
2022/08/28 05:16:51;;;;;;;5.37;2.93;;;;;;;17.25;100.00;99184.56;4914989;29;20197;-80
2022/08/28 05:19:23;;;;;;;8.57;2.90;;;;;;;17.38;100.00;99195.88;4934120;29;20215;-81
2022/08/28 05:21:52;;;;;;;9.57;2.80;;;;;;;17.42;100.00;99197.25;4888996;29;20205;-81
2022/08/28 05:24:24;;;;;;;8.50;2.97;;;;;;;17.41;100.00;99190.22;4931441;29;20205;-81
2022/08/28 05:26:56;;;;;;;6.27;2.73;;;;;;;17.38;100.00;99202.06;4961187;28;20195;-81
2022/08/28 05:29:24;;;;;;;11.20;2.70;;;;;;;17.52;100.00;99207.97;4974597;28;20627;-80
2022/08/28 05:31:53;;;;;;;7.10;3.10;;;;;;;17.49;100.00;99208.25;4988626;28;20205;-81
2022/08/28 05:34:23;;;;;;;7.07;2.93;;;;;;;17.46;100.00;99204.84;5073626;27;20198;-80
2022/08/28 05:36:52;;;;;;;5.23;2.40;;;;;;;17.68;100.00;99206.44;5129410;27;20194;-81
2022/08/28 05:39:20;;;;;;;7.77;3.07;;;;;;;17.57;100.00;99201.22;5126629;27;20194;-81
2022/08/28 05:41:49;;;;;;;9.70;3.20;;;;;;;17.59;100.00;99201.06;5126501;27;20277;-81
2022/08/28 05:44:19;;;;;;;10.90;3.03;;;;;;;17.62;100.00;99203.47;5131283;27;20197;-81
2022/08/28 05:46:48;;;;;;;6.00;2.60;;;;;;;17.65;100.00;99203.16;5131598;27;20221;-81
2022/08/28 05:49:19;;;;;;;9.70;2.80;;;;;;;17.68;100.00;99198.38;5132576;27;20214;-81
2022/08/28 05:51:49;;;;;;;6.50;2.60;;;;;;;17.54;100.00;99214.88;5130359;27;20198;-81
2022/08/28 05:54:20;;;;;;;6.57;2.80;;;;;;;17.68;100.00;99217.16;5069853;28;20195;-81
2022/08/28 05:56:50;;;;;;;8.13;2.73;;;;;;;17.54;100.00;99216.72;5065464;28;20279;-81
2022/08/28 05:59:20;;;;;;;7.53;2.87;;;;;;;17.62;100.00;99217.69;5068926;28;20211;-81
2022/08/28 06:01:50;;;;;;;5.23;2.80;;;;;;;17.72;100.00;99215.88;5068039;28;20195;-81
2022/08/28 06:04:22;;;;;;;7.67;2.97;;;;;;;17.81;100.00;99216.03;5071249;28;20192;-81
2022/08/28 06:06:51;;;;;;;11.47;3.07;;;;;;;17.72;100.00;99218.56;5070040;28;20204;-80
2022/08/28 06:09:22;;;;;;;7.93;2.83;;;;;;;17.80;100.00;99217.88;5066152;28;20303;-80
2022/08/28 06:11:58;;;;;;;5.17;2.70;;;;;;;17.92;100.00;99221.22;5088689;27;20221;-80
2022/08/28 06:14:30;;;;;;;5.13;2.50;;;;;;;17.78;100.00;99221.69;5129892;27;20374;-81
2022/08/28 06:17:02;;;;;;;5.87;2.80;;;;;;;17.72;100.00;99218.56;5125750;27;20190;-80
2022/08/28 06:19:32;;;;;;;8.77;2.77;;;;;;;17.86;100.00;99219.97;5122029;27;20277;-81
2022/08/28 06:22:08;;;;;;;6.70;2.70;;;;;;;17.91;100.00;99217.69;5130409;27;20198;-81
2022/08/28 06:24:37;;;;;;;9.17;2.40;;;;;;;17.98;100.00;99224.19;5133171;27;20205;-81
2022/08/28 06:27:06;;;;;;;8.03;2.90;;;;;;;18.12;100.00;99227.41;5129768;27;20216;-80
2022/08/28 06:29:36;;;;;;;6.53;2.60;;;;;;;18.08;100.00;99220.66;5127207;27;20222;-81
2022/08/28 06:32:04;;;;;;;8.93;2.70;;;;;;;17.86;100.00;99219.16;5127522;27;20194;-80
2022/08/28 06:34:34;;;;;;;8.30;2.67;;;;;;;17.87;100.00;99219.00;5127610;28;20254;-81
2022/08/28 06:37:02;;;;;;;10.17;2.93;;;;;;;18.00;100.00;99211.47;5130242;28;20191;-80
2022/08/28 06:39:31;;;;;;;7.33;2.70;;;;;;;18.02;100.00;99216.69;5130017;28;20190;-80
2022/08/28 06:42:00;;;;;;;9.37;2.93;;;;;;;18.12;100.00;99222.03;5126089;28;20193;-81
2022/08/28 06:44:30;;;;;;;7.90;2.77;;;;;;;18.19;100.00;99218.63;5128583;28;20310;-80
2022/08/28 06:47:03;;;;;;;9.40;3.10;;;;;;;18.33;100.00;99216.47;5126968;28;20332;-81
2022/08/28 06:49:32;;;;;;;9.27;2.97;;;;;;;18.48;100.00;99215.88;5128360;28;20256;-81
2022/08/28 06:52:01;;;;;;;8.30;3.00;;;;;;;18.36;100.00;99216.19;5123399;28;20253;-81
2022/08/28 06:54:29;;;;;;;9.87;3.27;;;;;;;18.59;100.00;99210.31;5129543;28;20198;-81
2022/08/28 06:56:58;;;;;;;9.20;3.67;;;;;;;18.53;100.00;99213.59;5067995;28;20220;-80
2022/08/28 06:59:26;;;;;;;10.33;3.47;;;;;;;18.70;100.00;99214.66;5070849;28;20308;-81
2022/08/28 07:01:56;;;;;;;12.13;3.40;;;;;;;18.62;100.00;99208.31;5064222;28;20197;-80
2022/08/28 07:04:26;;;;;;;8.23;3.20;;;;;;;18.71;100.00;99215.50;5067991;28;20196;-80
2022/08/28 07:06:54;;;;;;;8.70;3.13;;;;;;;18.86;100.00;99217.56;5066638;28;20203;-80
2022/08/28 07:09:24;;;;;;;8.53;3.20;;;;;;;18.89;100.00;99216.41;5069392;28;20348;-81
2022/08/28 07:11:53;;;;;;;7.93;3.20;;;;;;;18.77;100.00;99218.47;5064666;28;20200;-80
2022/08/28 07:14:25;;;;;;;7.60;3.17;;;;;;;18.91;100.00;99213.56;5079520;28;20209;-80
2022/08/28 07:16:54;;;;;;;8.13;3.33;;;;;;;18.94;100.00;99232.09;5125597;28;20221;-81
2022/08/28 07:19:24;;;;;;;10.67;3.80;;;;;;;18.91;100.00;99230.53;5120735;28;20210;-80
2022/08/28 07:21:54;;;;;;;11.27;3.63;;;;;;;18.77;100.00;99231.03;5125581;28;20795;-81
2022/08/28 07:24:24;;;;;;;9.97;3.80;;;;;;;19.01;100.00;99225.97;5123403;27;20202;-80
2022/08/28 07:26:53;;;;;;;9.00;3.53;;;;;;;18.91;100.00;99230.53;5098966;27;20190;-80
2022/08/28 07:29:21;;;;;;;8.60;3.70;;;;;;;19.10;100.00;99227.72;5134371;27;20700;-80
2022/08/28 07:31:57;;;;;;;14.33;3.67;;;;;;;19.05;100.00;99237.25;5127989;27;20205;-80
2022/08/28 07:34:26;;;;;;;9.07;4.07;;;;;;;19.20;100.00;99235.72;5131749;27;20273;-80
2022/08/28 07:37:02;;;;;;;9.93;3.43;;;;;;;19.20;100.00;99238.41;5137166;27;20230;-80
2022/08/28 07:39:31;;;;;;;11.00;3.70;;;;;;;19.30;100.00;99244.59;5131763;27;20194;-80
2022/08/28 07:42:01;;;;;;;11.80;3.40;;;;;;;19.31;100.00;99240.91;5128817;27;20199;-80
2022/08/28 07:47:17;;;;;;;11.70;3.53;;;;;;;19.63;100.00;99253.00;5132005;27;20233;-80
2022/08/28 07:49:45;;;;;;;10.70;3.90;;;;;;;19.58;100.00;99255.28;5124530;27;20214;-80
2022/08/28 07:52:15;;;;;;;9.37;3.20;;;;;;;19.81;100.00;99250.31;5127233;27;20198;-80
2022/08/28 07:54:46;;;;;;;10.20;2.83;;;;;;;19.78;100.00;99253.28;5131677;27;20712;-81
2022/08/28 07:57:15;;;;;;;10.17;3.40;;;;;;;19.95;100.00;99255.13;5128681;27;20201;-80
2022/08/28 07:59:44;;;;;;;11.67;4.30;;;;;;;20.01;100.00;99249.97;5132068;27;20684;-80
2022/08/28 08:02:12;;;;;;;9.23;3.50;;;;;;;20.10;100.00;99250.88;5129873;27;20202;-81
2022/08/28 08:04:41;;;;;;;9.67;3.43;;;;;;;20.14;100.00;99246.88;5131974;27;20222;-80
2022/08/28 08:07:11;;;;;;;10.80;3.70;;;;;;;20.29;100.00;99248.00;5130274;27;20243;-80
2022/08/28 08:09:43;;;;;;;9.37;3.53;;;;;;;20.25;100.00;99251.16;5071804;27;20214;-80
2022/08/28 08:12:14;;;;;;;7.83;3.33;;;;;;;20.15;100.00;99258.47;5133996;27;20202;-80
2022/08/28 08:14:48;;;;;;;9.03;3.37;;;;;;;20.21;100.00;99250.63;5129452;27;20191;-80
2022/08/28 08:17:19;;;;;;;11.53;3.40;;;;;;;20.09;100.00;99256.44;5132249;27;20190;-80
2022/08/28 08:19:47;;;;;;;8.80;3.47;;;;;;;20.21;100.00;99264.06;5128923;27;20190;-80
2022/08/28 08:22:17;;;;;;;8.07;3.50;;;;;;;20.20;100.00;99261.56;5124488;27;20210;-81
2022/08/28 08:24:50;;;;;;;9.93;3.40;;;;;;;20.02;100.00;99262.41;5132552;27;20209;-80
2022/08/28 08:27:19;;;;;;;9.37;3.37;;;;;;;20.05;100.00;99271.16;5132194;27;20205;-80
2022/08/28 08:29:50;;;;;;;9.50;3.50;;;;;;;20.44;100.00;99269.81;5081231;27;20210;-81
2022/08/28 08:32:18;;;;;;;10.53;3.50;;;;;;;20.31;100.00;99272.06;5081789;27;20198;-81
2022/08/28 08:34:46;;;;;;;9.17;3.40;;;;;;;20.42;100.00;99269.09;5130484;27;20193;-81
2022/08/28 08:37:16;;;;;;;8.67;3.53;;;;;;;20.49;100.00;99272.03;5129232;27;20229;-81
2022/08/28 08:39:46;;;;;;;7.10;3.00;;;;;;;20.73;100.00;99263.25;5127329;27;20205;-80
2022/08/28 08:42:23;;;;;;;10.27;3.23;;;;;;;20.90;100.00;99266.88;5123778;27;20195;-80
2022/08/28 08:44:54;;;;;;;7.27;3.40;;;;;;;20.54;100.00;99270.53;5125257;27;20200;-80
2022/08/28 08:47:32;;;;;;;8.73;3.30;;;;;;;20.65;100.00;99266.72;5127013;27;20335;-80
2022/08/28 08:50:05;;;;;;;8.50;3.63;;;;;;;20.75;100.00;99272.00;5128119;27;20238;-80
2022/08/28 08:52:52;;;;;;;7.47;2.93;;;;;;;21.05;100.00;99266.09;5123411;27;20237;-81
2022/08/28 08:55:26;;;;;;;10.33;3.77;;;;;;;20.93;100.00;99272.75;5087647;28;20188;-80
2022/08/28 08:58:06;;;;;;;9.23;3.80;;;;;;;21.05;100.00;99274.19;5092674;28;20187;-81
2022/08/28 09:00:43;;;;;;;9.07;3.60;;;;;;;20.78;100.00;99266.31;5086367;28;20286;-80
2022/08/28 09:03:15;;;;;;;14.03;4.10;;;;;;;21.02;100.00;99261.03;5092644;28;20199;-81
2022/08/28 09:05:48;;;;;;;10.27;3.60;;;;;;;21.44;100.00;99260.19;5032230;28;20196;-81
2022/08/28 09:08:31;;;;;;;6.97;2.80;;;;;;;21.93;100.00;99258.41;5029507;28;20236;-81
2022/08/28 09:11:03;;;;;;;8.50;3.20;;;;;;;22.07;100.00;99258.75;5025280;28;20218;-81
2022/08/28 09:13:44;;;;;;;9.97;3.47;;;;;;;22.03;100.00;99258.22;5048348;28;20189;-81
2022/08/28 09:16:24;;;;;;;10.97;3.60;;;;;;;22.07;100.00;99256.06;5068430;28;20203;-81
2022/08/28 09:18:55;;;;;;;11.37;3.23;;;;;;;21.92;100.00;99261.28;5067986;28;20214;-81
2022/08/28 09:21:26;;;;;;;10.73;3.20;;;;;;;21.87;100.00;99255.53;5068272;28;20200;-80
2022/08/28 09:24:01;;;;;;;9.17;3.70;;;;;;;22.27;100.00;99262.78;5098290;27;20198;-81
2022/08/28 09:26:39;;;;;;;11.37;3.30;;;;;;;22.61;100.00;99259.88;5130579;27;20645;-81
2022/08/28 09:29:18;;;;;;;10.63;3.70;;;;;;;22.22;100.00;99260.63;5097646;27;20641;-80
2022/08/28 09:31:46;;;;;;;10.03;3.37;;;;;;;22.59;100.00;99253.81;5092032;28;20193;-80
2022/08/28 09:34:28;;;;;;;7.97;3.22;;;;;;;22.60;100.00;99262.75;5084980;28;20328;-80
2022/08/28 09:36:58;;;;;;;7.25;3.22;;;;;;;22.62;100.00;99264.25;5086582;28;20196;-80
2022/08/28 09:39:29;;;;;;;6.78;3.30;;;;;;;22.39;100.00;99266.84;5086118;28;20207;-79
2022/08/28 09:44:56;;;;;;;11.80;3.58;;;;;;;23.03;96.75;99272.25;5092208;28;20192;-80
2022/08/28 09:47:58;;;;;;;10.60;3.50;;;;;;;22.47;96.67;99274.91;5091975;28;20223;-80
2022/08/28 09:50:36;;;;;;;8.97;3.03;;;;;;;22.93;95.22;99264.34;5083689;27;20222;-80
2022/08/28 09:53:19;;;;;;;9.15;3.30;;;;;;;22.86;92.76;99263.34;5129282;27;20190;-80
2022/08/28 09:56:00;;;;;;;7.00;3.00;;;;;;;23.10;93.33;99270.53;5126666;27;20199;-80
2022/08/28 09:58:34;;;;;;;10.43;3.83;;;;;;;23.32;92.62;99260.78;5125476;27;20198;-80
2022/08/28 10:01:11;;;;;;;6.75;3.05;;;;;;;23.32;88.68;99260.78;5130556;27;20767;-81
2022/08/28 10:03:51;;;;;;;8.07;3.13;;;;;;;22.66;91.53;99272.84;5128610;27;20217;-80
2022/08/28 10:06:26;;;;;;;9.80;2.80;;;;;;;23.11;90.19;99264.97;5126003;27;20199;-81
2022/08/28 10:09:04;;;;;;;8.50;2.97;;;;;;;23.48;87.16;99265.28;5126079;27;20190;-80
2022/08/28 10:11:44;;;;;;;8.18;3.50;;;;;;;23.47;87.34;99274.41;5128178;27;20217;-80
2022/08/28 10:14:27;;;;;;;9.68;2.95;;;;;;;23.81;82.36;99271.34;5133372;27;20277;-80
2022/08/28 10:17:09;;;;;;;9.48;3.13;;;;;;;23.75;80.73;99274.78;5137003;27;20186;-80
2022/08/28 10:19:46;;;;;;;9.50;3.40;;;;;;;22.85;84.66;99265.22;5129291;27;20190;-80
2022/08/28 10:22:29;;;;;;;8.85;3.33;;;;;;;23.71;83.77;99268.88;5130546;27;20241;-80
2022/08/28 10:25:12;;;;;;;8.35;3.30;;;;;;;23.90;82.00;99262.13;5130285;27;20186;-80
2022/08/28 10:27:54;;;;;;;8.48;3.08;;;;;;;24.31;79.30;99269.91;5128769;27;20232;-80
2022/08/28 10:30:25;;;;;;;8.93;3.10;;;;;;;23.69;79.09;99270.91;5129553;27;20279;-80
2022/08/28 10:33:12;;;;;;;8.30;3.00;;;;;;;24.10;78.38;99270.59;5130525;27;20210;-80
2022/08/28 10:35:49;;;;;;;7.93;3.28;;;;;;;24.50;72.99;99262.13;5132631;27;20269;-81
2022/08/28 10:38:24;;;;;;;7.20;3.15;;;;;;;24.78;69.42;99253.34;5133208;28;20229;-80
2022/08/28 10:40:59;;;;;;;7.30;3.15;;;;;;;24.86;68.91;99252.44;5134784;28;20194;-80
2022/08/28 10:43:35;;;;;;;5.38;3.03;;;;;;;25.44;65.26;99253.41;5133418;28;20190;-80
2022/08/28 10:46:06;;;;;;;8.55;3.45;;;;;;;25.10;65.07;99250.31;5127374;28;20198;-81
2022/08/28 10:48:42;;;;;;;10.63;3.67;;;;;;;24.67;66.71;99253.81;5126246;28;20248;-80
2022/08/28 10:51:17;;;;;;;9.00;3.70;;;;;;;25.11;61.01;99248.44;5127236;28;20278;-81
2022/08/28 10:54:06;;;;;;;7.07;3.63;;;;;;;24.73;60.38;99251.22;5133725;28;20274;-80
2022/08/28 10:56:40;;;;;;;7.28;3.25;;;;;;;25.53;61.43;99246.81;5128452;28;20668;-80
2022/08/28 10:59:08;;;;;;;8.40;3.42;;;;;;;25.60;60.25;99245.03;5131427;27;20191;-80
2022/08/28 11:01:41;;;;;;;8.23;3.30;;;;;;;25.99;58.68;99235.63;5135526;27;20281;-80
2022/08/28 11:04:20;;;;;;;6.20;3.58;;;;;;;26.35;56.24;99238.22;5133370;27;20206;-80
2022/08/28 11:06:55;;;;;;;7.72;3.72;;;;;;;26.19;53.71;99242.06;5131228;27;20205;-80
2022/08/28 11:09:31;;;;;;;7.47;3.92;;;;;;;26.44;53.13;99243.34;5134363;27;20269;-81
2022/08/28 11:12:02;;;;;;;8.00;3.90;;;;;;;26.46;52.63;99243.97;5135893;27;20225;-81
2022/08/28 11:14:35;;;;;;;7.97;4.22;;;;;;;26.53;52.30;99238.56;5134227;27;20190;-81
2022/08/28 11:17:40;;;;;;;6.20;3.88;;;;;;;26.12;52.76;99239.28;5133824;27;20206;-81
2022/08/28 11:20:15;;;;;;;8.00;4.05;;;;;;;26.19;50.91;99240.19;5131451;27;20209;-81
2022/08/28 11:22:48;;;;;;;7.40;4.28;;;;;;;26.43;48.90;99240.81;5131459;27;20225;-80
2022/08/28 11:25:23;;;;;;;9.02;4.07;;;;;;;26.34;46.34;99250.94;5137430;27;20186;-80
2022/08/28 11:28:16;;;;;;;8.57;3.83;;;;;;;27.53;43.73;99239.91;5034711;28;20206;-81
2022/08/28 11:30:47;;;;;;;5.93;3.58;;;;;;;27.73;43.36;99240.00;5032300;28;20285;-81
2022/08/28 11:33:38;;;;;;;8.95;4.10;;;;;;;26.75;46.05;99228.47;5035599;28;20190;-81
2022/08/28 11:36:13;;;;;;;8.85;4.20;;;;;;;26.84;47.06;99231.88;5034710;28;20221;-81
2022/08/28 11:39:06;;;;;;;8.90;4.30;;;;;;;27.42;44.74;99230.47;5033632;28;20240;-81
2022/08/28 11:41:37;;;;;;;7.47;3.70;;;;;;;27.46;43.81;99233.63;5025751;28;20193;-81
2022/08/28 11:44:27;;;;;;;8.38;4.13;;;;;;;27.68;42.51;99226.97;5030402;28;20206;-81
2022/08/28 11:47:15;;;;;;;7.82;4.30;;;;;;;27.14;44.02;99235.19;5122458;27;20305;-81
2022/08/28 11:49:45;;;;;;;9.88;4.40;;;;;;;28.00;42.73;99233.53;5107529;27;20213;-81
2022/08/28 11:52:37;;;;;;;8.00;4.45;;;;;;;27.82;42.32;99234.16;5138211;27;20221;-82
2022/08/28 11:55:21;;;;;;;10.93;4.28;;;;;;;27.93;42.82;99230.78;5130416;27;20277;-81